Time;durP1;ratioP1;P1;durP2;ratioP2;P2;SDS_P1;SDS_P2;PMS_P1;PMS_P2;Temp;Humidity;BMP_temperature;BMP_pressure;BME280_temperature;BME280_humidity;BME280_pressure;Samples;Min_cycle;Max_cycle;Signal;HPM_P1;HPM_P2
2021/04/03 00:00:43;;;;;;;24.23;7.78;;;;;;;;;;5229260;27;20034;-84
2021/04/03 00:03:12;;;;;;;25.25;6.75;;;;;;;;;;5229503;27;20074;-83
2021/04/03 00:05:42;;;;;;;20.45;7.37;;;;;;;;;;5225225;27;20380;-84
2021/04/03 00:08:11;;;;;;;31.42;7.57;;;;;;;;;;5207643;27;20057;-83
2021/04/03 00:10:43;;;;;;;28.60;7.65;;;;;;;;;;5209631;27;20035;-83
2021/04/03 00:13:11;;;;;;;32.17;7.22;;;;;;;;;;5225544;27;20636;-84
2021/04/03 00:15:39;;;;;;;29.42;7.12;;;;;;;;;;5226263;27;20605;-83
2021/04/03 00:18:07;;;;;;;26.50;7.12;;;;;;;;;;5228678;27;20057;-84
2021/04/03 00:20:38;;;;;;;25.12;7.53;;;;;;;;;;5228437;27;20049;-84
2021/04/03 00:23:06;;;;;;;28.67;7.97;;;;;;;;;;5228362;27;20034;-84
2021/04/03 00:25:34;;;;;;;25.15;8.68;;;;;;;;;;5205884;27;20057;-83
2021/04/03 00:28:03;;;;;;;28.40;7.32;;;;;;;;;;5229470;27;20030;-84
2021/04/03 00:30:31;;;;;;;28.80;7.70;;;;;;;;;;5209524;27;20030;-84
2021/04/03 00:33:02;;;;;;;29.65;8.05;;;;;;;;;;5223832;27;20759;-84
2021/04/03 00:35:32;;;;;;;28.02;13.88;;;;;;;;;;5226907;27;20069;-84
2021/04/03 00:38:00;;;;;;;38.70;12.20;;;;;;;;;;5225178;27;20023;-84
2021/04/03 00:40:38;;;;;;;24.90;7.80;;;;;;;;;;5226597;27;20700;-83
2021/04/03 00:43:13;;;;;;;28.62;7.37;;;;;;;;;;5226277;27;20053;-84
2021/04/03 00:45:42;;;;;;;24.95;7.25;;;;;;;;;;5209911;27;20769;-83
2021/04/03 00:48:10;;;;;;;25.15;7.50;;;;;;;;;;5226332;27;20060;-84
2021/04/03 00:50:40;;;;;;;22.02;7.00;;;;;;;;;;5226837;27;20471;-83
2021/04/03 00:53:10;;;;;;;21.75;6.80;;;;;;;;;;5211402;27;20337;-83
2021/04/03 00:55:39;;;;;;;27.20;7.45;;;;;;;;;;5232579;27;20048;-83
2021/04/03 00:58:08;;;;;;;24.65;7.75;;;;;;;;;;5231407;27;20428;-84
2021/04/03 01:00:37;;;;;;;29.98;7.03;;;;;;;;;;5232112;27;20031;-83
2021/04/03 01:03:06;;;;;;;25.08;7.57;;;;;;;;;;5210102;27;20057;-85
2021/04/03 01:05:34;;;;;;;30.88;7.40;;;;;;;;;;5212310;27;20029;-84
2021/04/03 01:08:03;;;;;;;25.08;7.10;;;;;;;;;;5231005;27;20037;-84
2021/04/03 01:10:34;;;;;;;28.35;8.02;;;;;;;;;;5230924;27;20035;-84
2021/04/03 01:13:15;;;;;;;34.00;16.75;;;;;;;;;;5230631;27;20026;-83
2021/04/03 01:15:54;;;;;;;19.80;6.30;;;;;;;;;;5231494;27;20057;-83
2021/04/03 01:18:26;;;;;;;28.02;6.97;;;;;;;;;;5227879;27;20044;-84
2021/04/03 01:21:03;;;;;;;23.98;6.50;;;;;;;;;;5231875;27;20014;-83
2021/04/03 01:23:55;;;;;;;28.08;7.28;;;;;;;;;;5210607;27;20037;-84
2021/04/03 01:26:27;;;;;;;25.23;6.82;;;;;;;;;;5230752;27;21064;-84
2021/04/03 01:29:14;;;;;;;28.00;6.53;;;;;;;;;;5231089;27;20026;-84
2021/04/03 01:31:47;;;;;;;28.85;7.30;;;;;;;;;;5230510;27;20987;-84
2021/04/03 01:34:24;;;;;;;22.55;6.78;;;;;;;;;;5233074;27;20417;-84
2021/04/03 01:36:58;;;;;;;29.17;7.47;;;;;;;;;;5227002;27;20046;-84
2021/04/03 01:39:27;;;;;;;35.42;17.05;;;;;;;;;;5226639;27;20765;-83
2021/04/03 01:41:58;;;;;;;34.03;17.35;;;;;;;;;;5229027;27;20054;-84
2021/04/03 01:44:34;;;;;;;41.70;19.52;;;;;;;;;;5229814;27;20550;-83
2021/04/03 01:47:04;;;;;;;26.30;8.85;;;;;;;;;;5229270;27;20034;-83
2021/04/03 01:49:33;;;;;;;26.17;11.65;;;;;;;;;;5224597;27;20381;-85
2021/04/03 01:52:03;;;;;;;24.35;7.22;;;;;;;;;;5230204;27;20062;-84
2021/04/03 01:54:33;;;;;;;25.02;10.65;;;;;;;;;;5227277;27;20081;-84
2021/04/03 01:57:02;;;;;;;24.23;8.48;;;;;;;;;;5227179;27;20061;-84
2021/04/03 01:59:32;;;;;;;22.65;9.05;;;;;;;;;;5224711;27;20978;-84
2021/04/03 02:02:03;;;;;;;50.92;25.67;;;;;;;;;;5206269;27;20053;-83
2021/04/03 02:04:31;;;;;;;45.55;21.12;;;;;;;;;;5230668;27;20045;-84
2021/04/03 02:07:03;;;;;;;27.52;8.10;;;;;;;;;;5231909;27;20074;-84
2021/04/03 02:09:35;;;;;;;22.60;5.62;;;;;;;;;;5226415;27;20672;-84
2021/04/03 02:12:07;;;;;;;29.60;7.22;;;;;;;;;;5212272;27;20479;-84
2021/04/03 02:14:38;;;;;;;27.60;6.62;;;;;;;;;;5233565;27;20018;-84
2021/04/03 02:17:06;;;;;;;24.08;6.15;;;;;;;;;;5212597;27;20068;-84
2021/04/03 02:19:36;;;;;;;27.60;6.68;;;;;;;;;;5226728;27;20591;-84
2021/04/03 02:22:04;;;;;;;27.50;6.75;;;;;;;;;;5227096;27;20023;-83
2021/04/03 02:24:32;;;;;;;26.92;6.87;;;;;;;;;;5230741;27;20018;-83
2021/04/03 02:27:01;;;;;;;32.65;6.72;;;;;;;;;;5229999;27;20069;-85
2021/04/03 02:29:29;;;;;;;24.48;6.60;;;;;;;;;;5228390;27;20060;-84
2021/04/03 02:31:59;;;;;;;27.98;6.75;;;;;;;;;;5213630;27;20032;-84
2021/04/03 02:34:27;;;;;;;22.62;6.32;;;;;;;;;;5233433;27;20041;-83
2021/04/03 02:37:15;;;;;;;27.23;6.57;;;;;;;;;;5233096;27;20040;-84
2021/04/03 02:39:43;;;;;;;23.48;6.55;;;;;;;;;;5227633;27;20069;-83
2021/04/03 02:42:17;;;;;;;22.08;6.12;;;;;;;;;;5234644;27;20021;-84
2021/04/03 02:44:52;;;;;;;27.80;6.55;;;;;;;;;;5197031;27;20022;-84
2021/04/03 02:47:41;;;;;;;23.70;6.47;;;;;;;;;;5224803;27;20066;-84
2021/04/03 02:50:23;;;;;;;28.33;7.47;;;;;;;;;;5227854;27;20028;-84
2021/04/03 02:52:54;;;;;;;31.98;7.55;;;;;;;;;;5231570;27;20017;-84
2021/04/03 02:55:27;;;;;;;28.08;7.25;;;;;;;;;;5233827;27;20014;-84
2021/04/03 02:57:56;;;;;;;18.10;6.30;;;;;;;;;;5228613;27;20003;-83
2021/04/03 03:00:25;;;;;;;22.27;5.80;;;;;;;;;;5231634;27;20062;-84
2021/04/03 03:02:54;;;;;;;23.30;6.30;;;;;;;;;;5231346;27;20479;-83
2021/04/03 03:05:23;;;;;;;22.08;7.15;;;;;;;;;;5232920;27;20084;-83
2021/04/03 03:07:53;;;;;;;19.40;5.57;;;;;;;;;;5227035;27;20029;-84
2021/04/03 03:10:23;;;;;;;28.15;7.00;;;;;;;;;;5232236;27;20081;-94
2021/04/03 03:13:08;;;;;;;23.17;6.25;;;;;;;;;;5236154;27;20018;-95
2021/04/03 03:15:42;;;;;;;37.17;13.27;;;;;;;;;;5218282;27;20018;-93
2021/04/03 03:18:16;;;;;;;36.08;16.60;;;;;;;;;;5202409;27;20419;-94
2021/04/03 03:20:51;;;;;;;41.33;17.85;;;;;;;;;;5215647;27;20027;-93
2021/04/03 03:23:26;;;;;;;27.75;12.27;;;;;;;;;;5214847;27;20081;-95
2021/04/03 03:26:13;;;;;;;22.67;9.35;;;;;;;;;;5213197;27;20070;-93
2021/04/03 03:28:46;;;;;;;43.65;21.25;;;;;;;;;;5215475;27;20022;-94
2021/04/03 03:31:20;;;;;;;24.98;6.90;;;;;;;;;;5199631;27;20061;-94
2021/04/03 03:34:00;;;;;;;25.12;7.62;;;;;;;;;;5216149;27;20031;-95
2021/04/03 03:36:35;;;;;;;25.23;6.50;;;;;;;;;;5214706;27;20038;-94
2021/04/03 03:39:05;;;;;;;23.62;6.10;;;;;;;;;;5214952;27;20054;-95
2021/04/03 03:45:18;;;;;;;34.47;17.00;;;;;;;;;;5206565;27;20027;-96
2021/04/03 03:47:54;;;;;;;36.38;17.50;;;;;;;;;;5213115;27;20118;-95
2021/04/03 03:50:37;;;;;;;37.03;17.83;;;;;;;;;;5214575;27;20457;-94
2021/04/03 03:53:08;;;;;;;36.22;17.30;;;;;;;;;;5215007;27;20041;-93
2021/04/03 03:55:39;;;;;;;35.33;17.90;;;;;;;;;;5214247;27;20034;-95
2021/04/03 03:58:18;;;;;;;37.15;19.37;;;;;;;;;;5214211;27;20305;-93
2021/04/03 04:00:50;;;;;;;44.13;24.85;;;;;;;;;;5213946;27;20118;-94
2021/04/03 04:03:25;;;;;;;33.33;16.85;;;;;;;;;;5214775;27;20457;-94
2021/04/03 04:05:58;;;;;;;23.67;7.03;;;;;;;;;;5215331;27;20066;-94
2021/04/03 04:08:40;;;;;;;31.73;6.90;;;;;;;;;;5215273;27;20147;-94
2021/04/03 04:11:09;;;;;;;34.67;7.30;;;;;;;;;;5214455;27;20023;-93
2021/04/03 04:13:42;;;;;;;21.05;5.53;;;;;;;;;;5214403;27;20106;-94
2021/04/03 04:16:11;;;;;;;24.65;6.65;;;;;;;;;;5214585;27;20038;-95
2021/04/03 04:18:44;;;;;;;24.15;5.43;;;;;;;;;;5214296;27;20057;-94
2021/04/03 04:21:20;;;;;;;;;;;;;;;;;;5215569;27;20320;-94
2021/04/03 04:23:52;;;;;;;28.20;6.05;;;;;;;;;;5198387;27;20346;-93
2021/04/03 04:26:23;;;;;;;25.58;6.93;;;;;;;;;;5216599;27;20060;-94
2021/04/03 04:29:07;;;;;;;22.30;6.28;;;;;;;;;;5217289;27;20028;-94
2021/04/03 04:31:47;;;;;;;36.95;6.80;;;;;;;;;;5201466;27;20030;-95
2021/04/03 04:34:26;;;;;;;28.33;6.62;;;;;;;;;;5217471;27;20137;-94
2021/04/03 04:36:58;;;;;;;26.50;6.62;;;;;;;;;;5217260;27;20074;-94
2021/04/03 04:39:31;;;;;;;26.90;5.87;;;;;;;;;;5216527;27;20027;-93
2021/04/03 04:42:02;;;;;;;27.45;6.50;;;;;;;;;;5235136;27;20082;-95
2021/04/03 04:44:58;;;;;;;18.25;5.53;;;;;;;;;;5231216;27;20093;-94
2021/04/03 04:47:58;;;;;;;29.85;7.28;;;;;;;;;;5219504;27;20031;-96
2021/04/03 04:50:32;;;;;;;30.02;6.47;;;;;;;;;;5201170;27;20081;-94
2021/04/03 04:53:06;;;;;;;25.60;6.35;;;;;;;;;;5218461;27;20022;-94
2021/04/03 04:55:45;;;;;;;24.67;5.75;;;;;;;;;;5217733;27;20031;-94
2021/04/03 04:58:24;;;;;;;29.23;5.95;;;;;;;;;;5217847;27;20018;-94
2021/04/03 05:00:53;;;;;;;21.75;5.15;;;;;;;;;;5217059;27;20071;-95
2021/04/03 05:03:30;;;;;;;29.92;5.57;;;;;;;;;;5234940;27;20050;-94
2021/04/03 05:06:30;;;;;;;;;;;;;;;;;;5218990;27;20424;-95
2021/04/03 05:09:10;;;;;;;30.52;6.78;;;;;;;;;;5203376;27;20284;-93
2021/04/03 05:11:47;;;;;;;25.48;6.93;;;;;;;;;;5204066;27;20037;-94
2021/04/03 05:14:28;;;;;;;24.05;6.12;;;;;;;;;;5217156;27;20058;-93
2021/04/03 05:16:58;;;;;;;29.27;6.90;;;;;;;;;;5216602;27;20058;-95
2021/04/03 05:19:28;;;;;;;27.55;6.50;;;;;;;;;;5217681;27;20066;-94
2021/04/03 05:21:57;;;;;;;30.27;6.32;;;;;;;;;;5218152;27;20093;-94
2021/04/03 05:24:29;;;;;;;20.35;5.10;;;;;;;;;;5218387;27;20022;-94
2021/04/03 05:27:01;;;;;;;24.58;5.90;;;;;;;;;;5215889;27;20019;-94
2021/04/03 05:29:32;;;;;;;22.92;6.10;;;;;;;;;;5215471;27;20040;-93
2021/04/03 05:32:02;;;;;;;25.10;5.95;;;;;;;;;;5213919;27;20036;-94
2021/04/03 05:34:36;;;;;;;26.77;6.47;;;;;;;;;;5214557;27;20077;-95
2021/04/03 05:37:20;;;;;;;25.00;6.62;;;;;;;;;;5214677;27;20817;-95
2021/04/03 05:39:53;;;;;;;29.87;6.78;;;;;;;;;;5215262;27;20041;-94
2021/04/03 05:42:22;;;;;;;26.42;5.55;;;;;;;;;;5215795;27;20026;-94
2021/04/03 05:44:50;;;;;;;28.90;6.20;;;;;;;;;;5216589;27;20034;-94
2021/04/03 05:47:22;;;;;;;42.47;17.73;;;;;;;;;;5217286;27;20026;-94
2021/04/03 05:49:55;;;;;;;40.88;17.62;;;;;;;;;;5214126;27;20065;-93
2021/04/03 05:52:24;;;;;;;25.35;5.90;;;;;;;;;;5214780;27;20098;-94
2021/04/03 05:54:54;;;;;;;26.77;5.62;;;;;;;;;;5216658;27;20069;-94
2021/04/03 05:57:24;;;;;;;34.97;17.25;;;;;;;;;;5217027;27;20050;-95
2021/04/03 05:59:53;;;;;;;33.28;13.32;;;;;;;;;;5215010;27;20086;-94
2021/04/03 06:02:34;;;;;;;28.67;6.47;;;;;;;;;;5217582;27;20102;-94
2021/04/03 06:05:04;;;;;;;27.42;6.85;;;;;;;;;;5217500;27;20018;-95
2021/04/03 06:07:34;;;;;;;22.27;5.80;;;;;;;;;;5218513;27;20030;-95
2021/04/03 06:10:06;;;;;;;23.73;6.75;;;;;;;;;;5218169;27;20058;-95
2021/04/03 06:12:42;;;;;;;23.73;6.05;;;;;;;;;;5217773;27;20070;-93
2021/04/03 06:15:14;;;;;;;33.65;6.18;;;;;;;;;;5219406;27;20028;-93
2021/04/03 06:17:44;;;;;;;29.70;5.80;;;;;;;;;;5219512;27;20023;-95
2021/04/03 06:20:19;;;;;;;25.63;6.10;;;;;;;;;;5218512;27;20393;-94
2021/04/03 06:22:50;;;;;;;25.17;8.75;;;;;;;;;;5235919;27;20185;-94
2021/04/03 06:25:20;;;;;;;24.85;6.57;;;;;;;;;;5218492;27;20026;-94
2021/04/03 06:27:51;;;;;;;24.25;5.93;;;;;;;;;;5220211;27;20022;-95
2021/04/03 06:30:35;;;;;;;25.60;6.40;;;;;;;;;;5201962;27;20483;-94
2021/04/03 06:33:19;;;;;;;22.33;6.30;;;;;;;;;;5203936;27;20070;-95
2021/04/03 06:36:06;;;;;;;32.38;6.75;;;;;;;;;;5222535;27;20046;-94
2021/04/03 06:38:37;;;;;;;20.90;5.50;;;;;;;;;;5218171;27;20069;-95
2021/04/03 06:41:23;;;;;;;22.90;6.22;;;;;;;;;;5217480;27;20123;-95
2021/04/03 06:44:03;;;;;;;27.70;6.20;;;;;;;;;;5200557;27;20080;-93
2021/04/03 06:46:45;;;;;;;26.87;6.72;;;;;;;;;;5201221;27;20022;-95
2021/04/03 06:49:14;;;;;;;22.27;6.32;;;;;;;;;;5215397;27;20046;-93
2021/04/03 06:51:50;;;;;;;31.05;6.50;;;;;;;;;;5232703;27;20031;-94
2021/04/03 06:54:21;;;;;;;47.08;22.90;;;;;;;;;;5233350;27;20295;-94
2021/04/03 06:57:00;;;;;;;26.00;6.90;;;;;;;;;;5216717;27;20085;-95
2021/04/03 06:59:28;;;;;;;33.10;13.07;;;;;;;;;;5215795;27;20398;-94
2021/04/03 07:01:59;;;;;;;31.87;7.57;;;;;;;;;;5217943;27;20035;-94
2021/04/03 07:04:29;;;;;;;50.45;27.45;;;;;;;;;;5217629;27;20025;-93
2021/04/03 07:07:03;;;;;;;23.87;6.15;;;;;;;;;;5199714;27;20070;-93
2021/04/03 07:09:36;;;;;;;60.25;32.15;;;;;;;;;;5218254;27;20029;-94
2021/04/03 07:12:13;;;;;;;28.23;11.07;;;;;;;;;;5213928;27;20027;-94
2021/04/03 07:14:41;;;;;;;29.98;6.75;;;;;;;;;;5215465;27;20023;-93
2021/04/03 07:17:11;;;;;;;29.40;7.05;;;;;;;;;;5216248;27;20035;-94
2021/04/03 07:19:44;;;;;;;29.75;8.60;;;;;;;;;;5197849;27;20045;-94
2021/04/03 07:22:14;;;;;;;32.88;6.53;;;;;;;;;;5217056;27;20043;-95
2021/04/03 07:24:45;;;;;;;29.33;6.30;;;;;;;;;;5200944;27;20090;-93
2021/04/03 07:27:15;;;;;;;34.05;7.93;;;;;;;;;;5200995;27;20069;-93
2021/04/03 07:29:45;;;;;;;34.15;6.50;;;;;;;;;;5215560;27;20030;-96
2021/04/03 07:32:38;;;;;;;26.27;6.47;;;;;;;;;;5231052;27;20057;-94
2021/04/03 07:35:18;;;;;;;39.58;10.82;;;;;;;;;;5215307;27;20022;-94
2021/04/03 07:37:48;;;;;;;32.15;14.68;;;;;;;;;;5215997;27;20091;-93
2021/04/03 07:40:23;;;;;;;26.23;5.75;;;;;;;;;;5215134;27;20422;-94
2021/04/03 07:42:52;;;;;;;20.05;5.60;;;;;;;;;;5216606;27;20034;-94
2021/04/03 07:45:33;;;;;;;30.10;6.30;;;;;;;;;;5215267;27;20041;-95
2021/04/03 07:48:02;;;;;;;32.70;6.65;;;;;;;;;;5213300;27;20408;-95
2021/04/03 07:50:51;;;;;;;25.23;6.47;;;;;;;;;;5215787;27;20019;-93
2021/04/03 07:53:46;;;;;;;19.10;5.15;;;;;;;;;;5215557;27;20093;-95
2021/04/03 07:56:20;;;;;;;55.28;29.92;;;;;;;;;;5232480;27;20022;-94
2021/04/03 07:58:50;;;;;;;42.47;21.87;;;;;;;;;;5215678;27;20070;-94
2021/04/03 08:01:34;;;;;;;34.15;12.07;;;;;;;;;;5215867;27;20336;-95
2021/04/03 08:04:05;;;;;;;46.80;28.12;;;;;;;;;;5219393;27;20738;-96
2021/04/03 08:06:49;;;;;;;32.60;16.85;;;;;;;;;;5223795;27;20018;-96
2021/04/03 08:09:52;;;;;;;34.58;11.25;;;;;;;;;;5224451;27;20026;-96
2021/04/03 08:12:25;;;;;;;24.23;7.25;;;;;;;;;;5218851;27;20851;-94
2021/04/03 08:14:56;;;;;;;24.27;7.22;;;;;;;;;;5234767;27;20053;-94
2021/04/03 08:17:26;;;;;;;24.73;7.47;;;;;;;;;;5216998;27;20037;-95
2021/04/03 08:20:00;;;;;;;26.77;7.07;;;;;;;;;;5218648;27;20049;-95
2021/04/03 08:22:29;;;;;;;24.58;5.78;;;;;;;;;;5215116;27;20031;-95
2021/04/03 08:25:02;;;;;;;29.00;8.65;;;;;;;;;;5213958;27;20037;-95
2021/04/03 08:27:34;;;;;;;37.38;7.80;;;;;;;;;;5214078;27;20495;-94
2021/04/03 08:30:20;;;;;;;30.60;11.05;;;;;;;;;;5215939;27;20111;-94
2021/04/03 08:33:05;;;;;;;30.33;8.32;;;;;;;;;;5216461;27;20033;-95
2021/04/03 08:35:34;;;;;;;27.02;5.78;;;;;;;;;;5217630;27;20085;-93
2021/04/03 08:38:07;;;;;;;27.58;6.00;;;;;;;;;;5216126;27;20023;-94
2021/04/03 08:40:40;;;;;;;37.65;7.07;;;;;;;;;;5217153;27;20034;-94
2021/04/03 08:43:20;;;;;;;34.75;7.32;;;;;;;;;;5199067;27;20027;-96
2021/04/03 08:45:50;;;;;;;27.42;6.45;;;;;;;;;;5202256;27;20046;-96
2021/04/03 08:48:34;;;;;;;27.70;8.70;;;;;;;;;;5222553;27;20066;-96
2021/04/03 08:51:20;;;;;;;35.00;5.80;;;;;;;;;;5211675;27;20017;-95
2021/04/03 08:54:18;;;;;;;22.70;5.97;;;;;;;;;;5196155;27;20011;-96
2021/04/03 08:58:01;;;;;;;26.25;6.93;;;;;;;;;;5225554;27;20010;-96
2021/04/03 09:01:25;;;;;;;19.52;5.70;;;;;;;;;;5229005;27;20061;-96
2021/04/03 09:08:09;;;;;;;26.70;6.25;;;;;;;;;;5231384;27;20003;-96
2021/04/03 09:46:06;;;;;;;29.87;6.18;;;;;;;;;;5159814;27;20418;-83
2021/04/03 09:48:35;;;;;;;20.52;6.05;;;;;;;;;;5202524;27;20027;-83
2021/04/03 09:51:04;;;;;;;17.62;5.62;;;;;;;;;;5206443;27;20046;-83
2021/04/03 09:53:32;;;;;;;27.87;6.40;;;;;;;;;;5203318;27;20476;-83
2021/04/03 09:56:03;;;;;;;24.45;5.30;;;;;;;;;;5210729;27;20558;-83
2021/04/03 09:58:31;;;;;;;23.70;5.30;;;;;;;;;;5210927;27;20504;-84
2021/04/03 10:00:59;;;;;;;19.77;5.53;;;;;;;;;;5207796;27;20035;-85
2021/04/03 10:03:27;;;;;;;22.65;5.90;;;;;;;;;;5207709;27;20491;-86
2021/04/03 10:05:56;;;;;;;25.12;6.18;;;;;;;;;;5203628;27;20047;-86
2021/04/03 10:08:24;;;;;;;21.40;6.05;;;;;;;;;;5211041;27;20408;-86
2021/04/03 10:10:52;;;;;;;23.95;5.78;;;;;;;;;;5210870;27;20031;-86
2021/04/03 10:13:20;;;;;;;18.30;5.72;;;;;;;;;;5207969;27;20031;-86
2021/04/03 10:15:48;;;;;;;35.97;6.70;;;;;;;;;;5208000;27;20031;-85
2021/04/03 10:18:16;;;;;;;29.10;5.37;;;;;;;;;;5209152;27;20023;-85
2021/04/03 10:20:44;;;;;;;23.98;6.12;;;;;;;;;;5211153;27;20525;-85
2021/04/03 10:23:12;;;;;;;20.80;5.32;;;;;;;;;;5209897;27;20101;-85
2021/04/03 10:25:41;;;;;;;28.23;6.30;;;;;;;;;;5208979;27;20031;-85
2021/04/03 10:28:10;;;;;;;20.92;5.87;;;;;;;;;;5189219;27;20393;-85
2021/04/03 10:30:38;;;;;;;19.45;5.75;;;;;;;;;;5207582;27;20031;-85
2021/04/03 10:33:06;;;;;;;22.17;5.85;;;;;;;;;;5202125;27;20062;-86
2021/04/03 10:35:34;;;;;;;16.60;4.37;;;;;;;;;;5204883;27;20030;-85
2021/04/03 10:38:03;;;;;;;21.48;6.20;;;;;;;;;;5200259;27;20058;-86
2021/04/03 10:40:31;;;;;;;39.38;7.03;;;;;;;;;;5205875;27;20060;-85
2021/04/03 10:42:59;;;;;;;23.23;5.53;;;;;;;;;;5202116;27;20058;-86
2021/04/03 10:45:27;;;;;;;21.05;5.53;;;;;;;;;;5209630;27;20082;-86
2021/04/03 10:47:55;;;;;;;20.85;5.85;;;;;;;;;;5207764;27;20069;-85
2021/04/03 10:50:23;;;;;;;22.98;5.50;;;;;;;;;;5209441;27;20027;-86
2021/04/03 10:52:51;;;;;;;19.95;5.47;;;;;;;;;;5205013;27;20022;-86
2021/04/03 10:55:20;;;;;;;20.17;5.30;;;;;;;;;;5207426;27;20069;-85
2021/04/03 10:57:48;;;;;;;19.40;4.82;;;;;;;;;;5209366;27;20038;-85
2021/04/03 11:00:16;;;;;;;21.05;5.25;;;;;;;;;;5202033;27;20079;-85
2021/04/03 11:02:44;;;;;;;19.23;4.80;;;;;;;;;;5185346;27;20401;-84
2021/04/03 11:05:12;;;;;;;21.52;5.20;;;;;;;;;;5200251;27;20041;-85
2021/04/03 11:07:40;;;;;;;25.25;5.55;;;;;;;;;;5208825;27;20058;-85
2021/04/03 11:10:09;;;;;;;24.80;5.32;;;;;;;;;;5207368;27;20409;-84
2021/04/03 11:12:37;;;;;;;25.62;5.53;;;;;;;;;;5205981;27;20042;-84
2021/04/03 11:15:05;;;;;;;21.75;4.87;;;;;;;;;;5206128;27;20040;-85
2021/04/03 11:17:34;;;;;;;26.67;6.57;;;;;;;;;;5205989;27;20077;-84
2021/04/03 11:20:04;;;;;;;18.12;5.10;;;;;;;;;;5206635;27;20365;-85
2021/04/03 11:22:32;;;;;;;19.15;5.03;;;;;;;;;;5189773;27;20019;-85
2021/04/03 11:25:01;;;;;;;17.62;5.05;;;;;;;;;;5206407;27;20100;-85
2021/04/03 11:27:30;;;;;;;19.00;5.05;;;;;;;;;;5208034;27;20072;-84
2021/04/03 11:30:12;;;;;;;23.52;4.97;;;;;;;;;;5210815;27;20409;-84
2021/04/03 11:32:41;;;;;;;22.80;5.18;;;;;;;;;;5210094;27;20030;-85
2021/04/03 11:35:14;;;;;;;19.67;4.90;;;;;;;;;;5208020;27;20030;-85
2021/04/03 11:37:43;;;;;;;54.55;7.68;;;;;;;;;;5208561;27;20401;-86
2021/04/03 11:40:12;;;;;;;21.55;5.40;;;;;;;;;;5208052;27;20460;-86
2021/04/03 11:42:40;;;;;;;16.17;4.43;;;;;;;;;;5209972;27;20388;-85
2021/04/03 11:45:10;;;;;;;20.20;4.75;;;;;;;;;;5209467;27;20412;-85
2021/04/03 11:47:38;;;;;;;27.67;5.47;;;;;;;;;;5207820;27;20050;-85
2021/04/03 11:50:10;;;;;;;14.93;4.53;;;;;;;;;;5210991;27;20401;-85
2021/04/03 11:52:38;;;;;;;21.27;4.95;;;;;;;;;;5211459;27;20022;-85
2021/04/03 11:55:07;;;;;;;24.17;5.65;;;;;;;;;;5208659;27;20022;-85
2021/04/03 11:57:35;;;;;;;31.67;6.12;;;;;;;;;;5209611;27;20124;-85
2021/04/03 12:00:05;;;;;;;19.12;5.47;;;;;;;;;;5205026;27;20064;-85
2021/04/03 12:02:33;;;;;;;23.80;5.12;;;;;;;;;;5210056;27;20034;-85
2021/04/03 12:05:02;;;;;;;27.23;5.18;;;;;;;;;;5208042;27;20034;-85
2021/04/03 12:07:34;;;;;;;40.97;6.28;;;;;;;;;;5185219;27;20040;-84
2021/04/03 12:10:03;;;;;;;21.55;5.15;;;;;;;;;;5205855;27;20061;-84
2021/04/03 12:12:32;;;;;;;24.00;5.32;;;;;;;;;;5209488;27;20033;-85
2021/04/03 12:14:59;;;;;;;27.52;5.40;;;;;;;;;;5189177;27;20058;-86
2021/04/03 12:17:28;;;;;;;22.30;5.12;;;;;;;;;;5210609;27;20075;-85
2021/04/03 12:19:56;;;;;;;24.42;5.30;;;;;;;;;;5211587;27;20073;-85
2021/04/03 12:22:24;;;;;;;21.65;5.07;;;;;;;;;;5212614;27;20031;-85
2021/04/03 12:24:52;;;;;;;21.42;5.10;;;;;;;;;;5189986;27;20031;-85
2021/04/03 12:27:20;;;;;;;21.40;5.40;;;;;;;;;;5207858;27;20069;-85
2021/04/03 12:29:48;;;;;;;44.55;6.87;;;;;;;;;;5210812;27;20027;-84
2021/04/03 12:32:17;;;;;;;25.42;4.80;;;;;;;;;;5210519;27;20058;-86
2021/04/03 12:34:45;;;;;;;22.27;4.93;;;;;;;;;;5208525;27;20100;-84
2021/04/03 12:37:16;;;;;;;24.83;5.37;;;;;;;;;;5208515;27;20036;-85
2021/04/03 12:39:44;;;;;;;21.42;5.47;;;;;;;;;;5211914;27;20212;-85
2021/04/03 12:42:12;;;;;;;19.08;4.53;;;;;;;;;;5211065;27;20418;-85
2021/04/03 12:44:40;;;;;;;26.45;5.40;;;;;;;;;;5210567;27;20063;-84
2021/04/03 12:47:09;;;;;;;19.08;4.80;;;;;;;;;;5203543;27;20057;-86
2021/04/03 12:49:37;;;;;;;23.58;5.87;;;;;;;;;;5208426;27;20027;-84
2021/04/03 12:52:05;;;;;;;25.92;5.22;;;;;;;;;;5213343;27;20030;-84
2021/04/03 12:54:33;;;;;;;27.48;5.40;;;;;;;;;;5212140;27;20061;-85
2021/04/03 12:57:02;;;;;;;22.15;5.20;;;;;;;;;;5209972;27;20408;-84
2021/04/03 12:59:30;;;;;;;24.37;5.10;;;;;;;;;;5212572;27;20031;-85
2021/04/03 13:01:58;;;;;;;24.75;5.10;;;;;;;;;;5190581;27;20037;-85
2021/04/03 13:04:26;;;;;;;20.25;5.35;;;;;;;;;;5210371;27;20031;-85
2021/04/03 13:06:54;;;;;;;21.67;4.87;;;;;;;;;;5210008;27;20027;-85
2021/04/03 13:09:22;;;;;;;16.00;4.55;;;;;;;;;;5210398;27;20334;-85
2021/04/03 13:11:51;;;;;;;23.85;5.20;;;;;;;;;;5211280;27;20055;-85
2021/04/03 13:14:19;;;;;;;20.60;5.00;;;;;;;;;;5208698;27;20369;-85
2021/04/03 13:16:47;;;;;;;25.95;5.22;;;;;;;;;;5211754;27;20028;-85
2021/04/03 13:19:15;;;;;;;27.42;6.20;;;;;;;;;;5211210;27;20085;-85
2021/04/03 13:21:43;;;;;;;22.50;5.22;;;;;;;;;;5208942;27;20046;-85
2021/04/03 13:24:12;;;;;;;28.02;5.62;;;;;;;;;;5190116;27;20055;-84
2021/04/03 13:26:40;;;;;;;26.27;5.75;;;;;;;;;;5211432;27;20410;-84
2021/04/03 13:29:07;;;;;;;20.10;4.97;;;;;;;;;;5208733;27;20411;-84
2021/04/03 13:31:36;;;;;;;25.98;5.45;;;;;;;;;;5184141;27;20796;-85
2021/04/03 13:34:04;;;;;;;21.23;5.68;;;;;;;;;;5208548;27;20052;-84
2021/04/03 13:36:32;;;;;;;23.70;5.07;;;;;;;;;;5192587;27;20026;-85
2021/04/03 13:39:00;;;;;;;27.65;5.68;;;;;;;;;;5200183;27;20062;-85
2021/04/03 13:41:29;;;;;;;18.98;4.60;;;;;;;;;;5207971;27;20427;-85
2021/04/03 13:43:57;;;;;;;23.62;5.35;;;;;;;;;;5189081;27;20038;-85
2021/04/03 13:46:26;;;;;;;21.73;5.50;;;;;;;;;;5203018;27;20121;-86
2021/04/03 13:48:53;;;;;;;23.52;5.22;;;;;;;;;;5203772;27;20058;-86
2021/04/03 13:51:21;;;;;;;30.02;5.62;;;;;;;;;;5203791;27;20031;-86
2021/04/03 13:53:50;;;;;;;21.27;5.30;;;;;;;;;;5209595;27;20035;-86
2021/04/03 13:56:18;;;;;;;26.50;4.45;;;;;;;;;;5204674;27;20042;-86
2021/04/03 13:58:47;;;;;;;20.10;4.50;;;;;;;;;;5199934;27;20037;-85
2021/04/03 14:01:15;;;;;;;23.00;4.53;;;;;;;;;;5199863;27;20398;-84
2021/04/03 14:03:44;;;;;;;19.50;4.65;;;;;;;;;;5204414;27;20069;-84
2021/04/03 14:06:12;;;;;;;17.25;4.28;;;;;;;;;;5184168;27;20084;-85
2021/04/03 14:08:40;;;;;;;19.83;4.82;;;;;;;;;;5201332;27;20058;-86
2021/04/03 14:11:09;;;;;;;19.98;4.50;;;;;;;;;;5203277;27;20054;-86
2021/04/03 14:13:37;;;;;;;16.87;4.43;;;;;;;;;;5202925;27;20051;-86
2021/04/03 14:16:06;;;;;;;24.40;5.25;;;;;;;;;;5202212;27;20033;-85
2021/04/03 14:18:35;;;;;;;22.55;4.72;;;;;;;;;;5183013;27;20808;-86
2021/04/03 14:21:04;;;;;;;20.27;5.05;;;;;;;;;;5203621;27;20058;-84
2021/04/03 14:23:52;;;;;;;24.25;5.00;;;;;;;;;;5203030;27;20460;-84
2021/04/03 14:26:20;;;;;;;18.10;4.70;;;;;;;;;;5185587;27;20100;-86
2021/04/03 14:28:49;;;;;;;23.08;5.20;;;;;;;;;;5181559;27;20386;-84
2021/04/03 14:31:17;;;;;;;23.60;4.47;;;;;;;;;;5203841;27;20035;-85
2021/04/03 14:33:46;;;;;;;29.80;5.07;;;;;;;;;;5202935;27;20101;-85
2021/04/03 14:36:14;;;;;;;20.77;4.68;;;;;;;;;;5202696;27;20042;-84
2021/04/03 14:38:43;;;;;;;20.30;4.95;;;;;;;;;;5206657;27;20540;-86
2021/04/03 14:41:10;;;;;;;25.45;5.07;;;;;;;;;;5205683;27;20187;-85
2021/04/03 14:43:38;;;;;;;27.75;5.12;;;;;;;;;;5210155;27;20706;-84
2021/04/03 14:46:08;;;;;;;20.52;4.37;;;;;;;;;;5192920;27;20453;-84
2021/04/03 14:48:36;;;;;;;21.67;4.43;;;;;;;;;;5208657;27;20035;-86
2021/04/03 14:51:04;;;;;;;20.50;4.28;;;;;;;;;;5205730;27;20042;-85
2021/04/03 14:53:33;;;;;;;22.73;5.25;;;;;;;;;;5206357;27;20046;-85
2021/04/03 14:56:01;;;;;;;24.87;5.22;;;;;;;;;;5208637;27;20093;-85
2021/04/03 14:58:29;;;;;;;30.67;5.43;;;;;;;;;;5211366;27;20035;-86
2021/04/03 15:00:58;;;;;;;23.33;4.97;;;;;;;;;;5188394;27;20527;-86
2021/04/03 15:03:27;;;;;;;18.85;4.07;;;;;;;;;;5190581;27;20031;-84
2021/04/03 15:05:55;;;;;;;23.30;5.12;;;;;;;;;;5211171;27;20073;-85
2021/04/03 15:08:24;;;;;;;19.80;5.07;;;;;;;;;;5211408;27;20036;-86
2021/04/03 15:10:52;;;;;;;21.23;4.47;;;;;;;;;;5206388;27;20046;-85
2021/04/03 15:13:19;;;;;;;17.67;4.93;;;;;;;;;;5204452;27;20066;-85
2021/04/03 15:15:48;;;;;;;26.77;5.20;;;;;;;;;;5210146;27;20030;-85
2021/04/03 15:18:16;;;;;;;48.33;6.40;;;;;;;;;;5209804;27;20085;-85
2021/04/03 15:20:43;;;;;;;23.33;5.18;;;;;;;;;;5210447;27;20035;-85
2021/04/03 15:23:12;;;;;;;23.27;4.68;;;;;;;;;;5203048;27;20413;-85
2021/04/03 15:25:40;;;;;;;21.95;4.60;;;;;;;;;;5209847;27;20031;-84
2021/04/03 15:28:09;;;;;;;22.70;4.93;;;;;;;;;;5210271;27;20018;-85
2021/04/03 15:30:38;;;;;;;17.73;4.47;;;;;;;;;;5173218;27;20496;-84
2021/04/03 15:33:06;;;;;;;23.08;5.70;;;;;;;;;;5205192;27;20793;-85
2021/04/03 15:35:33;;;;;;;24.40;5.30;;;;;;;;;;5207699;27;20050;-84
2021/04/03 15:38:02;;;;;;;17.90;5.10;;;;;;;;;;5208844;27;20023;-85
2021/04/03 15:40:30;;;;;;;26.95;5.60;;;;;;;;;;5191140;27;20054;-85